• Join FlightAware (Why Join?)
  • Login
  • US Flag 
10:11AM EST


 

Airport Tracker/Info


-or-


 

Live Flight TrackerFlight Track Log ✈ UAL4476 ✈ 30-Apr-2013 ✈ KCLT - KCLE

Flight Track Log - Related Links

Times and Time Zones

All times are in EDT time to prevent confusion due to time zone crossing. See the UAL4476 flight status page for this flight to view local times or setup timezone preferences in your user account.

Time Position Orientation Groundspeed Altitude Reporting Facility
EDT Latitude Longitude Course Direction KTS MPH feet Rate Location/Type
06:27AM 35.2283 -80.9394 11° North 169 194 1,600  Level Atlanta Center
06:29AM 35.3694 -80.9061 11° North 239 275 7,300 2,767 Climbing Atlanta Center
06:30AM 35.4467 -80.9031 North 271 312 10,500 2,650 Climbing Atlanta Center
06:31AM 35.5342 -80.8972 North 293 337 12,600 1,900 Climbing Atlanta Center
06:32AM 35.6278 -80.8936 North 319 367 14,300 1,850 Climbing Atlanta Center
06:33AM 35.7278 -80.8897 North 345 397 16,300 1,950 Climbing Atlanta Center
06:34AM 35.8328 -80.9114 351° North 366 421 18,200 2,150 Climbing Atlanta Center
06:35AM 35.9314 -80.9383 348° North 373 429 20,600 2,450 Climbing Atlanta Center
06:36AM 36.0303 -80.9628 349° North 368 423 23,100 2,450 Climbing Atlanta Center
06:37AM 36.1289 -80.9872 349° North 358 412 25,500 2,250 Climbing Atlanta Center
06:38AM 36.2275 -81.0092 350° North 352 405 27,600 2,050 Climbing Atlanta Center
06:39AM 36.3217 -81.0314 349° North 352 405 29,600 2,050 Climbing Atlanta Center
06:40AM 36.4142 -81.0564 348° North 352 405 31,700 1,200 Climbing Atlanta Center
06:41AM 36.5147 -81.0811 349° North 358 412 32,000 90 Climbing Atlanta Center
06:44AM 36.7811 -81.1506 348° North 439 505 32,000  Level Indianapolis Center
06:45AM 36.9017 -81.1814 348° North 449 517 32,000  Level Indianapolis Center
06:46AM 37.0192 -81.2103 349° North 443 510 32,000  Level Indianapolis Center
06:47AM 37.1528 -81.2439 349° North 441 507 32,000  Level Indianapolis Center
06:48AM 37.2756 -81.2753 349° North 446 513 32,000  Level Indianapolis Center
06:49AM 37.3956 -81.3064 348° North 437 503 32,000  Level Indianapolis Center
06:50AM 37.5164 -81.3381 348° North 445 512 32,000  Level Indianapolis Center
06:51AM 37.6344 -81.3675 349° North 442 509 32,000  Level Indianapolis Center
06:52AM 37.7525 -81.3992 348° North 443 510 32,000  Level Indianapolis Center
06:53AM 37.8853 -81.4333 349° North 443 510 32,000  Level Indianapolis Center
06:54AM 38.0069 -81.4658 348° North 445 512 32,000  Level Indianapolis Center
06:55AM 38.1281 -81.4958 349° North 443 510 32,000  Level Indianapolis Center
06:56AM 38.2500 -81.5289 348° North 446 513 32,000  Level Indianapolis Center
06:57AM 38.3706 -81.5606 348° North 442 509 32,000  Level Indianapolis Center
06:58AM 38.4922 -81.5931 348° North 443 510 32,000  Level Indianapolis Center
06:59AM 38.6142 -81.6261 348° North 441 507 32,000  Level Indianapolis Center
07:00AM 38.7250 -81.6547 349° North 438 504 32,000  Level Indianapolis Center
07:01AM 38.8625 -81.6900 349° North 439 505 32,000  Level Indianapolis Center
07:02AM 38.9819 -81.7219 348° North 434 499 32,000  Level Indianapolis Center
07:03AM 39.1025 -81.7553 348° North 440 506 32,000  Level Indianapolis Center
07:04AM 39.2225 -81.7875 348° North 441 507 32,000  Level Indianapolis Center
07:05AM 39.3417 -81.8183 349° North 437 503 32,000  Level Indianapolis Center
07:06AM 39.4608 -81.8503 348° North 436 502 32,000 -590 Level Indianapolis Center
07:07AM 39.5792 -81.8828 348° North 435 501 30,800 -1,377 Descending Indianapolis Center
07:08AM 39.7097 -81.9186 348° North 441 507 29,200 -1,525 Descending Indianapolis Center
07:09AM 39.8311 -81.9528 348° North 443 510 27,700 -1,475 Descending Indianapolis Center
07:10AM 39.9533 -81.9864 348° North 446 513 26,200 -1,475 Descending Indianapolis Center
07:11AM 40.0758 -82.0197 348° North 445 512 24,700 -1,475 Descending Indianapolis Center
07:12AM 40.1928 -82.0522 348° North 428 493 23,200 -1,426 Descending Indianapolis Center
07:13AM 40.3050 -82.0839 348° North 417 480 21,800 -1,475 Descending Indianapolis Center
07:14AM 40.4147 -82.1142 348° North 402 463 20,200 -1,519 Descending Indianapolis Center
07:14AM 40.4550 -82.1111 North 401 461 19,800 -1,462 Descending Cleveland Center
07:15AM 40.5497 -82.0342 32° Northeast 382 440 18,300 -1,450 Descending Cleveland Center
07:16AM 40.6386 -81.9483 36° Northeast 392 451 16,900 -1,412 Descending Cleveland Center
07:17AM 40.6700 -81.9217 33° Northeast 396 456 16,300 -1,700 Descending Cleveland Center
07:17AM 40.7269 -81.8600 39° Northeast 392 451 15,200 -1,958 Descending Cleveland Center
07:18AM 40.8114 -81.7764 37° Northeast 392 451 13,200 -2,000 Descending Cleveland Center
07:19AM 40.9075 -81.7508 11° North 357 411 11,200 -1,600 Descending Cleveland Center
07:20AM 40.9911 -81.7383 North 336 387 10,000 -960 Descending Cleveland Center
07:21AM 41.0203 -81.7389 359° North 334 384 10,000  Level Cleveland Center
07:21AM 41.0892 -81.7292 North 336 387 10,000  Level Cleveland Center
07:22AM 41.1183 -81.7297 359° North 355 409 10,000 -100 Level Cleveland Center
07:22AM 41.1808 -81.7197 North 342 394 9,900 -300 Descending Cleveland Center
07:23AM 41.2122 -81.7175 North 274 315 9,700 -1,300 Descending Cleveland Center
07:23AM 41.2561 -81.7100 North 297 342 8,600 -1,869 Descending Cleveland Center
07:24AM 41.2833 -81.7078 North 259 298 7,800 -2,200 Descending Cleveland Center
07:24AM 41.3375 -81.7058 North 271 312 6,400 -2,300 Descending Cleveland Center
07:25AM 41.3583 -81.7089 354° North 266 306 5,500 -2,500 Descending Cleveland Center
07:25AM 41.4103 -81.7211 350° North 260 299 3,900 -2,262 Descending Cleveland Center
07:26AM 41.4247 -81.7294 337° Northwest 237 273 3,200 -1,500 Descending Cleveland Center
07:26AM 41.4494 -81.7689 310° West 210 242 2,400 -1,082 Descending Cleveland Center
07:27AM 41.4514 -81.7856 279° West 146 168 2,100 -835 Descending Cleveland Center
07:28AM 41.4300 -81.8239 233° Southwest 127 146 1,300 -800 Descending Cleveland Center
07:30AM 41.4094 -81.8547 228° Southwest  Level Estimated
07:37AM 41.4094 -81.8547 225° Southwest  Level Estimated